Time;durP1;ratioP1;P1;durP2;ratioP2;P2;SDS_P1;SDS_P2;PMS_P1;PMS_P2;Temp;Humidity;BMP_temperature;BMP_pressure;BME280_temperature;BME280_humidity;BME280_pressure;Samples;Min_cycle;Max_cycle;Signal;HPM_P1;HPM_P2
2021/12/11 00:01:02;;;;;;;40.90;18.57;;;;;;;12.63;80.50;101466.13;4923030;29;20495;-70
2021/12/11 00:03:38;;;;;;;39.67;14.73;;;;;;;12.65;79.55;101458.25;4931866;29;20055;-70
2021/12/11 00:06:22;;;;;;;44.63;12.57;;;;;;;12.64;80.20;101446.22;4934428;29;20496;-68
2021/12/11 00:08:52;;;;;;;36.63;11.73;;;;;;;12.63;80.30;101454.91;4935664;29;20054;-66
2021/12/11 00:11:37;;;;;;;41.03;14.43;;;;;;;12.58;80.70;101447.31;4931246;29;20058;-62
2021/12/11 00:14:07;;;;;;;32.90;12.63;;;;;;;12.67;80.28;101453.25;4934601;29;20189;-59
2021/12/11 00:16:35;;;;;;;41.13;14.57;;;;;;;12.69;80.33;101453.81;4933738;29;20094;-60
2021/12/11 00:19:14;;;;;;;33.00;14.03;;;;;;;12.64;80.31;101435.00;4930698;29;20063;-60
2021/12/11 00:21:42;;;;;;;40.47;15.93;;;;;;;12.76;79.86;101452.44;4922529;29;20150;-63
2021/12/11 00:24:16;;;;;;;35.93;14.20;;;;;;;12.78;79.65;101454.97;4932699;29;20075;-60
2021/12/11 00:26:53;;;;;;;40.47;13.73;;;;;;;12.74;79.51;101456.63;4930916;29;20138;-60
2021/12/11 00:29:25;;;;;;;39.63;14.70;;;;;;;12.69;79.76;101439.81;4932804;29;20467;-63
2021/12/11 00:32:10;;;;;;;37.67;16.70;;;;;;;12.59;80.15;101436.94;4929638;29;20132;-64
2021/12/11 00:34:43;;;;;;;35.23;13.50;;;;;;;12.43;80.40;101422.84;4925262;29;20079;-64
2021/12/11 00:37:12;;;;;;;33.17;15.33;;;;;;;12.38;80.55;101431.25;4928547;29;20115;-63
2021/12/11 00:39:53;;;;;;;45.73;17.10;;;;;;;12.27;80.94;101421.06;4933233;29;20083;-67
2021/12/11 00:42:23;;;;;;;36.47;16.63;;;;;;;12.15;81.11;101426.06;4932374;29;20320;-69
2021/12/11 00:44:54;;;;;;;52.40;18.75;;;;;;;11.99;81.25;101430.69;4932587;29;20079;-68
2021/12/11 00:47:26;;;;;;;42.00;17.40;;;;;;;11.84;81.20;101426.66;4934392;29;20458;-69
2021/12/11 00:50:21;;;;;;;31.77;17.23;;;;;;;11.68;81.37;101423.97;4932163;29;20075;-69
2021/12/11 00:52:59;;;;;;;31.90;16.90;;;;;;;11.55;81.35;101417.69;4933883;29;20122;-69
2021/12/11 00:55:33;;;;;;;45.17;17.70;;;;;;;11.45;81.72;101417.59;4932368;29;20548;-69
2021/12/11 00:58:09;;;;;;;42.37;15.97;;;;;;;11.43;81.73;101417.03;4927646;29;20446;-68
2021/12/11 01:00:44;;;;;;;39.43;15.93;;;;;;;11.53;81.68;101417.16;4927258;29;20064;-68
2021/12/11 01:03:15;;;;;;;34.13;14.23;;;;;;;11.52;81.46;101409.88;4930240;29;20119;-69
2021/12/11 01:05:46;;;;;;;33.70;15.57;;;;;;;11.53;81.61;101407.91;4930742;29;20135;-70
2021/12/11 01:08:34;;;;;;;32.40;13.27;;;;;;;11.39;81.82;101401.91;4934326;29;20464;-69
2021/12/11 01:11:10;;;;;;;30.30;13.07;;;;;;;11.26;81.65;101393.94;4931933;29;20493;-72
2021/12/11 01:13:45;;;;;;;22.67;10.90;;;;;;;11.13;81.93;101396.06;4935115;29;20090;-75
2021/12/11 01:16:15;;;;;;;18.50;9.93;;;;;;;11.03;81.83;101393.16;4933313;29;20069;-76
2021/12/11 01:18:46;;;;;;;15.97;6.20;;;;;;;10.80;81.90;101404.63;4933969;29;20090;-76
2021/12/11 01:24:13;;;;;;;26.83;12.07;;;;;;;10.53;82.22;101393.41;4927480;29;20082;-79
2021/12/11 01:26:50;;;;;;;17.70;8.47;;;;;;;10.46;82.25;101396.41;4931172;29;20075;-77
2021/12/11 01:29:21;;;;;;;21.83;10.30;;;;;;;10.51;82.61;101401.22;4931829;29;20130;-82
2021/12/11 01:31:49;;;;;;;24.45;10.70;;;;;;;10.51;82.79;101398.41;4936284;29;20126;-67
2021/12/11 01:34:17;;;;;;;29.10;10.50;;;;;;;10.49;82.87;101395.03;4923635;29;20139;-68
2021/12/11 01:36:45;;;;;;;23.27;10.60;;;;;;;10.63;83.02;101413.06;4931959;29;20441;-69
2021/12/11 01:39:16;;;;;;;19.60;8.90;;;;;;;10.64;83.15;101409.19;4928681;29;20062;-68
2021/12/11 01:41:45;;;;;;;29.40;7.83;;;;;;;10.63;83.11;101405.56;4930520;29;20142;-68
2021/12/11 01:44:21;;;;;;;20.63;8.57;;;;;;;10.58;83.29;101408.28;4930121;29;20134;-69
2021/12/11 01:46:48;;;;;;;21.97;6.97;;;;;;;10.55;83.34;101414.38;4931681;29;20051;-64
2021/12/11 01:49:20;;;;;;;20.77;7.53;;;;;;;10.51;83.37;101417.97;4925328;29;20048;-75
2021/12/11 01:51:54;;;;;;;28.40;9.93;;;;;;;10.49;83.39;101415.41;4915120;29;20178;-74
2021/12/11 01:54:30;;;;;;;19.23;9.77;;;;;;;10.52;83.60;101420.47;4930490;29;20134;-68
2021/12/11 01:57:01;;;;;;;26.60;9.83;;;;;;;10.54;83.62;101429.47;4937247;29;20079;-70
2021/12/11 01:59:33;;;;;;;15.20;7.43;;;;;;;10.52;83.72;101426.06;4932239;29;20075;-70
2021/12/11 02:02:12;;;;;;;15.77;6.03;;;;;;;10.52;83.75;101434.44;4934946;29;20143;-72
2021/12/11 02:04:44;;;;;;;14.83;7.13;;;;;;;10.44;83.98;101426.53;4924041;29;22024;-78
2021/12/11 02:07:22;;;;;;;17.97;9.20;;;;;;;10.42;83.80;101426.75;4921663;29;20319;-80
2021/12/11 02:09:55;;;;;;;22.00;8.53;;;;;;;10.46;83.91;101427.13;4931426;29;20584;-70
2021/12/11 02:12:33;;;;;;;20.33;9.07;;;;;;;10.49;83.98;101423.78;4933148;29;20540;-64
2021/12/11 02:15:03;;;;;;;16.93;9.33;;;;;;;10.54;84.24;101432.25;4932685;29;20208;-64
2021/12/11 02:17:56;;;;;;;27.42;7.70;;;;;;;10.60;84.03;101428.44;4932779;29;20098;-64
2021/12/11 02:20:31;;;;;;;20.30;10.03;;;;;;;10.72;83.92;101427.44;4928470;29;20146;-65
2021/12/11 02:22:59;;;;;;;17.53;9.03;;;;;;;10.71;84.10;101417.38;4931199;29;20139;-68
2021/12/11 02:25:34;;;;;;;26.10;9.57;;;;;;;10.74;83.89;101414.06;4932783;29;20075;-68
2021/12/11 02:28:06;;;;;;;29.40;10.93;;;;;;;10.87;83.76;101425.69;4927024;29;20083;-67
2021/12/11 02:30:39;;;;;;;19.57;9.57;;;;;;;10.81;83.64;101409.13;4931215;29;20130;-66
2021/12/11 02:33:13;;;;;;;21.23;9.10;;;;;;;10.88;83.71;101437.72;4931887;29;20052;-66
2021/12/11 02:35:53;;;;;;;19.63;8.80;;;;;;;10.81;83.69;101431.47;4929645;29;20130;-66
2021/12/11 02:38:34;;;;;;;18.05;9.82;;;;;;;10.78;83.83;101423.63;4932685;29;20138;-73
2021/12/11 02:41:34;;;;;;;19.73;8.40;;;;;;;10.82;83.90;101425.63;4929392;29;20098;-74
2021/12/11 02:44:08;;;;;;;14.57;6.50;;;;;;;10.72;83.90;101408.72;4931527;29;20086;-76
2021/12/11 02:47:00;;;;;;;17.50;8.73;;;;;;;10.81;83.83;101431.47;4927067;29;20048;-76
2021/12/11 02:49:55;;;;;;;19.17;6.07;;;;;;;10.75;83.84;101426.94;4929883;29;20048;-81
2021/12/11 02:52:53;;;;;;;21.50;8.73;;;;;;;10.79;84.06;101431.72;4930086;29;20142;-80
2021/12/11 02:55:27;;;;;;;14.93;7.20;;;;;;;10.84;84.00;101428.16;4932153;29;20143;-79
2021/12/11 02:57:59;;;;;;;18.10;6.33;;;;;;;10.71;83.96;101411.78;4933433;29;20456;-81
2021/12/11 03:00:31;;;;;;;19.73;8.93;;;;;;;10.87;84.01;101428.50;4934145;29;20131;-78
2021/12/11 03:03:04;;;;;;;20.27;8.97;;;;;;;10.90;84.00;101435.47;4934815;29;20492;-78
2021/12/11 03:05:43;;;;;;;17.13;7.50;;;;;;;10.94;83.89;101424.63;4933796;29;20078;-75
2021/12/11 03:08:14;;;;;;;20.73;8.00;;;;;;;10.94;83.87;101425.50;4930396;29;20071;-78
2021/12/11 03:10:46;;;;;;;30.50;8.80;;;;;;;10.97;84.10;101419.34;4931988;29;20071;-71
2021/12/11 03:13:13;;;;;;;26.57;9.07;;;;;;;11.02;84.10;101429.75;4938180;29;20079;-74
2021/12/11 03:15:40;;;;;;;22.53;9.80;;;;;;;10.82;83.91;101385.66;4934415;29;20055;-73
2021/12/11 03:18:08;;;;;;;32.23;10.27;;;;;;;11.17;83.93;101431.88;4936530;29;20075;-73
2021/12/11 03:20:37;;;;;;;32.53;10.53;;;;;;;11.24;83.65;101432.50;4934858;29;20083;-74
2021/12/11 03:23:07;;;;;;;35.23;10.50;;;;;;;11.30;83.72;101431.44;4930738;29;20147;-74
2021/12/11 03:25:34;;;;;;;29.35;11.27;;;;;;;11.36;83.47;101425.66;4935224;29;20139;-72
2021/12/11 03:28:03;;;;;;;22.63;10.50;;;;;;;11.39;83.51;101424.28;4933493;29;20066;-70
2021/12/11 03:30:36;;;;;;;25.80;10.67;;;;;;;11.44;83.29;101424.31;4934967;29;20470;-81
2021/12/11 03:33:08;;;;;;;25.20;8.90;;;;;;;11.48;83.48;101419.03;4934439;29;20499;-67
2021/12/11 03:35:37;;;;;;;27.43;8.03;;;;;;;11.57;83.30;101421.09;4936513;29;20071;-78
2021/12/11 03:38:05;;;;;;;29.07;10.60;;;;;;;11.62;83.32;101412.75;4934935;29;20440;-78
2021/12/11 03:40:33;;;;;;;26.43;8.87;;;;;;;11.67;83.44;101414.75;4931087;29;20079;-76
2021/12/11 03:43:04;;;;;;;31.10;9.20;;;;;;;11.72;83.31;101416.72;4934683;29;20520;-76
2021/12/11 03:45:36;;;;;;;34.50;9.47;;;;;;;11.72;83.26;101417.56;4930641;29;20485;-73
2021/12/11 03:48:11;;;;;;;32.67;9.93;;;;;;;11.68;83.35;101408.03;4933019;29;20575;-78
2021/12/11 03:50:39;;;;;;;27.67;8.93;;;;;;;11.65;83.20;101399.31;4934325;29;20130;-75
2021/12/11 03:53:06;;;;;;;22.40;10.00;;;;;;;11.70;83.42;101418.97;4936283;29;20134;-75
2021/12/11 03:55:38;;;;;;;29.17;8.17;;;;;;;11.69;83.32;101414.47;4934127;29;20372;-71
2021/12/11 03:58:07;;;;;;;24.33;10.47;;;;;;;11.66;83.36;101412.19;4943729;29;20067;-66
2021/12/11 04:00:39;;;;;;;25.63;10.20;;;;;;;11.71;83.27;101417.84;4935025;29;20464;-67
2021/12/11 04:03:09;;;;;;;32.10;9.57;;;;;;;11.70;83.09;101413.38;4931384;29;20090;-64
2021/12/11 04:05:40;;;;;;;28.60;8.70;;;;;;;11.72;83.08;101416.72;4932842;29;20460;-61
2021/12/11 04:08:10;;;;;;;18.40;9.53;;;;;;;11.77;83.15;101403.63;4927297;29;20242;-61
2021/12/11 04:10:37;;;;;;;29.40;10.15;;;;;;;11.87;83.24;101408.50;4930247;29;20145;-63
2021/12/11 04:13:07;;;;;;;25.70;10.93;;;;;;;12.01;82.83;101409.72;4929721;29;20645;-63
2021/12/11 04:15:36;;;;;;;24.63;14.47;;;;;;;12.19;82.60;101410.38;4933483;29;20214;-67
2021/12/11 04:18:05;;;;;;;38.17;11.03;;;;;;;12.30;82.53;101406.53;4931257;29;20055;-67
2021/12/11 04:20:33;;;;;;;28.83;14.03;;;;;;;12.39;82.17;101404.06;4933382;29;20134;-66
2021/12/11 04:23:00;;;;;;;28.77;14.33;;;;;;;12.43;81.96;101411.66;4934745;29;20131;-67
2021/12/11 04:25:28;;;;;;;30.53;13.87;;;;;;;12.55;81.89;101415.09;4945265;29;20090;-68
2021/12/11 04:27:56;;;;;;;29.57;14.13;;;;;;;12.61;81.81;101407.53;4934462;29;20146;-68
2021/12/11 04:30:26;;;;;;;36.90;13.93;;;;;;;12.65;81.65;101414.28;4933656;29;20214;-67
2021/12/11 04:32:54;;;;;;;32.67;14.73;;;;;;;12.71;81.48;101403.91;4928298;29;20052;-74
2021/12/11 04:35:26;;;;;;;29.60;14.30;;;;;;;12.64;81.61;101375.31;4932189;29;20044;-77
2021/12/11 04:37:54;;;;;;;31.13;11.77;;;;;;;12.79;81.27;101407.06;4931915;29;20452;-74
2021/12/11 04:40:25;;;;;;;20.87;9.87;;;;;;;12.76;81.19;101398.34;4932400;29;20071;-75
2021/12/11 04:45:45;;;;;;;23.03;9.90;;;;;;;12.79;81.31;101414.63;4931073;29;20143;-75
2021/12/11 04:48:50;;;;;;;27.07;9.83;;;;;;;12.72;81.39;101408.44;4934520;29;20059;-73
2021/12/11 04:51:36;;;;;;;28.27;8.77;;;;;;;12.61;81.61;101409.50;4924468;29;20058;-68
2021/12/11 05:04:55;;;;;;;19.77;7.83;;;;;;;12.51;82.38;101405.53;4933183;29;19923;-73
2021/12/11 05:07:43;;;;;;;26.10;8.43;;;;;;;12.48;82.40;101391.25;4927333;29;20087;-68
2021/12/11 05:10:28;;;;;;;23.10;9.20;;;;;;;12.57;82.35;101407.22;4921841;29;20138;-67
2021/12/11 05:12:58;;;;;;;16.57;7.73;;;;;;;12.70;81.98;101405.06;4932119;29;20075;-68
2021/12/11 05:15:29;;;;;;;17.92;8.10;;;;;;;12.71;81.79;101392.72;4933349;29;20138;-63
2021/12/11 05:17:57;;;;;;;23.73;10.00;;;;;;;12.89;81.63;101400.66;4926326;29;20135;-67
2021/12/11 05:20:28;;;;;;;17.97;8.10;;;;;;;12.88;81.55;101401.75;4931526;29;20079;-67
2021/12/11 05:22:56;;;;;;;15.23;7.87;;;;;;;12.90;81.31;101404.28;4933088;29;20522;-61
2021/12/11 05:25:23;;;;;;;23.90;8.70;;;;;;;12.66;81.46;101404.75;4933812;29;20131;-63
2021/12/11 05:27:50;;;;;;;25.20;8.67;;;;;;;12.30;81.50;101404.56;4934574;29;20444;-82
2021/12/11 05:30:23;;;;;;;17.67;7.60;;;;;;;12.02;81.64;101411.41;4934214;29;20101;-81
2021/12/11 05:32:51;;;;;;;13.90;5.33;;;;;;;11.66;81.88;101398.22;4937499;29;20059;-82
2021/12/11 05:35:18;;;;;;;23.37;8.53;;;;;;;11.46;81.95;101410.94;4943935;29;20083;-83
2021/12/11 05:37:46;;;;;;;14.23;6.77;;;;;;;11.29;82.20;101404.63;4950391;29;20409;-79
2021/12/11 05:40:18;;;;;;;18.37;8.03;;;;;;;11.01;82.10;101395.38;4944719;29;20135;-81
2021/12/11 05:42:46;;;;;;;11.07;6.13;;;;;;;11.01;82.18;101406.56;4940161;29;20062;-84
2021/12/11 05:45:15;;;;;;;12.03;6.40;;;;;;;10.96;82.54;101403.69;4935761;29;20079;-79
2021/12/11 05:47:43;;;;;;;20.13;7.03;;;;;;;10.89;82.57;101401.09;4934530;29;20162;-79
2021/12/11 05:50:15;;;;;;;12.00;6.00;;;;;;;10.83;82.80;101401.31;4934781;29;20163;-79
2021/12/11 05:52:42;;;;;;;17.77;7.50;;;;;;;10.75;82.88;101415.75;4931732;29;20086;-77
2021/12/11 05:55:13;;;;;;;21.47;7.53;;;;;;;10.87;83.09;101413.66;4930957;29;20075;-76
2021/12/11 05:57:49;;;;;;;27.93;9.00;;;;;;;10.81;83.16;101418.34;4932883;29;20079;-77
2021/12/11 06:00:18;;;;;;;24.07;9.00;;;;;;;10.76;83.32;101414.63;4930347;29;20047;-76
2021/12/11 06:02:57;;;;;;;21.60;8.83;;;;;;;10.80;83.45;101421.38;4933852;29;20106;-77
2021/12/11 06:05:25;;;;;;;20.10;9.10;;;;;;;10.79;83.39;101414.13;4932410;29;20056;-64
2021/12/11 06:07:52;;;;;;;25.33;8.37;;;;;;;10.90;83.27;101424.31;4928792;29;20484;-64
2021/12/11 06:10:20;;;;;;;16.77;8.60;;;;;;;10.52;83.63;101367.41;4923538;29;20048;-63
2021/12/11 06:12:51;;;;;;;23.30;7.23;;;;;;;10.96;83.57;101425.22;4923563;29;20066;-75
2021/12/11 06:15:18;;;;;;;;;;;;;;;10.94;83.48;101421.81;4934087;29;20086;-74
2021/12/11 06:17:46;;;;;;;16.70;6.63;;;;;;;10.87;83.62;101430.41;4931376;29;20026;-73
2021/12/11 06:20:17;;;;;;;18.43;8.57;;;;;;;10.85;83.68;101424.25;4931320;29;20115;-72
2021/12/11 06:22:45;;;;;;;24.30;8.63;;;;;;;10.75;83.33;101413.78;4930315;29;20146;-62
2021/12/11 06:25:19;;;;;;;27.93;9.17;;;;;;;10.82;83.61;101431.19;4930302;29;20043;-69
2021/12/11 06:27:46;;;;;;;16.73;8.63;;;;;;;10.84;83.47;101422.56;4927663;29;20066;-68
2021/12/11 06:30:14;;;;;;;24.57;8.20;;;;;;;10.90;83.62;101425.13;4928838;29;20445;-68
2021/12/11 06:32:42;;;;;;;36.20;10.07;;;;;;;10.92;83.52;101430.50;4932825;29;20127;-68
2021/12/11 06:35:39;;;;;;;32.50;9.57;;;;;;;10.87;83.61;101411.72;4929935;29;20183;-62
2021/12/11 06:38:08;;;;;;;20.60;8.43;;;;;;;10.99;83.55;101431.13;4930672;29;20044;-63
2021/12/11 06:40:37;;;;;;;20.87;8.43;;;;;;;11.03;83.51;101429.50;4928243;29;20440;-70
2021/12/11 06:43:04;;;;;;;32.23;8.20;;;;;;;11.05;83.51;101421.69;4931653;29;20155;-70
2021/12/11 06:45:31;;;;;;;18.53;7.10;;;;;;;11.03;83.53;101428.66;4929836;29;20488;-73
2021/12/11 06:47:58;;;;;;;16.77;8.13;;;;;;;11.03;83.57;101426.69;4935140;29;20511;-58
2021/12/11 06:50:25;;;;;;;25.77;9.93;;;;;;;11.09;83.60;101431.25;4933389;29;20139;-58
2021/12/11 06:52:57;;;;;;;26.57;9.07;;;;;;;11.10;83.88;101424.53;4929754;29;20054;-61
2021/12/11 06:55:25;;;;;;;31.10;9.07;;;;;;;11.12;83.55;101425.13;4932424;29;20139;-60
2021/12/11 06:57:52;;;;;;;23.90;9.27;;;;;;;11.19;83.59;101433.31;4933902;29;20058;-60
2021/12/11 07:00:21;;;;;;;34.37;9.70;;;;;;;11.24;83.49;101432.50;4929315;29;20468;-61
2021/12/11 07:02:48;;;;;;;25.63;10.30;;;;;;;11.32;83.47;101430.09;4925807;29;20139;-61
2021/12/11 07:05:15;;;;;;;28.70;9.70;;;;;;;11.33;83.39;101428.13;4929492;29;20060;-61
2021/12/11 07:07:43;;;;;;;24.37;9.33;;;;;;;11.35;83.56;101431.50;4925007;29;20070;-62
2021/12/11 07:10:14;;;;;;;25.23;8.80;;;;;;;11.26;83.48;101430.31;4925813;29;20126;-62
2021/12/11 07:12:42;;;;;;;23.13;9.43;;;;;;;11.15;83.61;101413.41;4922948;29;21706;-61
2021/12/11 07:15:10;;;;;;;26.63;9.20;;;;;;;11.28;83.58;101434.53;4923578;29;20537;-62
2021/12/11 07:17:38;;;;;;;30.80;10.03;;;;;;;11.32;83.58;101423.66;4932211;29;20048;-62
2021/12/11 07:20:07;;;;;;;21.30;9.93;;;;;;;11.46;83.40;101432.47;4932527;29;20068;-62
2021/12/11 07:22:36;;;;;;;28.20;11.10;;;;;;;11.63;83.37;101439.63;4939029;29;20184;-66
2021/12/11 07:25:16;;;;;;;32.63;10.98;;;;;;;11.76;83.15;101435.53;4931736;29;20083;-58
2021/12/11 07:27:44;;;;;;;36.70;10.88;;;;;;;11.88;82.98;101438.16;4932662;29;20134;-59
2021/12/11 07:30:12;;;;;;;28.10;11.40;;;;;;;11.93;82.88;101435.44;4928920;29;20136;-58
2021/12/11 07:32:39;;;;;;;25.77;10.17;;;;;;;12.02;82.61;101436.59;4927905;29;20151;-59
2021/12/11 07:35:07;;;;;;;28.20;10.87;;;;;;;12.04;82.58;101434.38;4929237;29;20068;-59
2021/12/11 07:37:34;;;;;;;27.60;11.93;;;;;;;12.07;82.36;101431.03;4927544;29;20047;-59
2021/12/11 07:40:08;;;;;;;30.80;11.13;;;;;;;12.14;82.26;101429.97;4931481;29;20587;-59
2021/12/11 07:42:36;;;;;;;33.90;11.23;;;;;;;12.22;82.22;101441.50;4930158;29;20044;-59
2021/12/11 07:45:03;;;;;;;37.00;10.77;;;;;;;12.24;81.99;101430.88;4931409;29;20393;-59
2021/12/11 07:47:30;;;;;;;34.13;10.97;;;;;;;12.32;81.94;101443.53;4931639;29;20135;-59
2021/12/11 07:49:57;;;;;;;34.10;10.80;;;;;;;12.34;81.79;101441.28;4925287;29;20048;-59
2021/12/11 07:52:24;;;;;;;35.90;9.90;;;;;;;12.42;81.77;101446.38;4932434;29;20150;-59
2021/12/11 07:54:51;;;;;;;30.70;11.90;;;;;;;12.45;81.79;101443.03;4936060;29;20130;-60
2021/12/11 07:57:18;;;;;;;36.33;9.67;;;;;;;12.42;81.42;101446.38;4928506;29;20154;-59
2021/12/11 07:59:45;;;;;;;27.60;10.30;;;;;;;12.48;81.73;101450.06;4922499;29;20135;-59
2021/12/11 08:02:12;;;;;;;34.27;11.03;;;;;;;12.56;81.61;101456.00;4926546;29;20561;-59
2021/12/11 08:04:39;;;;;;;36.17;10.93;;;;;;;12.65;81.59;101459.13;4927021;29;20055;-60
2021/12/11 08:07:06;;;;;;;30.17;9.60;;;;;;;12.71;81.34;101462.78;4928974;29;20444;-59
2021/12/11 08:09:34;;;;;;;26.80;9.83;;;;;;;12.76;81.41;101466.47;4931649;29;20134;-59
2021/12/11 08:12:01;;;;;;;33.27;10.23;;;;;;;12.77;81.32;101470.94;4933160;29;20146;-58
2021/12/11 08:14:28;;;;;;;27.23;10.13;;;;;;;12.82;81.22;101481.34;4928758;29;20135;-59
2021/12/11 08:16:58;;;;;;;28.80;11.00;;;;;;;12.86;81.21;101479.69;4929160;29;20412;-58
2021/12/11 08:19:27;;;;;;;36.08;10.65;;;;;;;12.94;81.28;101479.16;4933571;29;20464;-59
2021/12/11 08:21:57;;;;;;;29.13;9.67;;;;;;;12.94;81.24;101476.34;4936434;29;20134;-59
2021/12/11 08:24:27;;;;;;;;;;;;;;;13.04;81.76;101482.00;4934702;29;20103;-59
2021/12/11 08:26:56;;;;;;;27.38;10.45;;;;;;;13.07;81.40;101477.81;4934090;29;19927;-58
2021/12/11 08:29:23;;;;;;;27.77;7.82;;;;;;;13.07;81.59;101482.56;4933819;29;20139;-59
2021/12/11 08:31:53;;;;;;;38.23;9.87;;;;;;;13.09;81.49;101483.97;4935056;29;20135;-59
2021/12/11 08:34:21;;;;;;;39.77;10.50;;;;;;;13.15;81.66;101479.22;4933904;29;20087;-59
2021/12/11 08:36:48;;;;;;;28.97;9.93;;;;;;;13.25;81.68;101484.91;4924654;29;20147;-59
2021/12/11 08:39:17;;;;;;;30.50;9.90;;;;;;;13.12;81.63;101463.78;4934216;29;20143;-61
2021/12/11 08:41:46;;;;;;;21.90;10.23;;;;;;;13.28;81.55;101478.75;4934686;29;20179;-59
2021/12/11 08:44:16;;;;;;;28.13;10.03;;;;;;;13.42;81.72;101499.53;4934424;29;20163;-59
2021/12/11 08:46:48;;;;;;;30.27;8.17;;;;;;;13.28;81.74;101506.78;4929499;29;20690;-59
2021/12/11 08:49:19;;;;;;;33.10;9.53;;;;;;;13.22;81.80;101510.66;4924621;29;20075;-59
2021/12/11 08:51:58;;;;;;;28.33;9.93;;;;;;;13.32;81.99;101513.53;4935201;29;20452;-59
2021/12/11 08:54:27;;;;;;;34.20;10.37;;;;;;;13.31;81.93;101511.00;4933133;29;20074;-59
2021/12/11 08:57:00;;;;;;;33.97;10.88;;;;;;;13.24;82.05;101525.28;4928799;29;20147;-60
2021/12/11 08:59:29;;;;;;;33.87;11.93;;;;;;;13.02;82.21;101515.09;4929103;29;20086;-59
2021/12/11 09:02:12;;;;;;;30.60;10.53;;;;;;;13.05;82.62;101516.47;4934713;29;20086;-57
2021/12/11 09:04:40;;;;;;;31.15;10.40;;;;;;;13.25;82.37;101535.38;4930113;29;20063;-57
2021/12/11 09:07:18;;;;;;;26.83;9.97;;;;;;;13.13;82.41;101530.00;4936786;29;20515;-57
2021/12/11 09:09:58;;;;;;;23.67;10.83;;;;;;;13.05;82.48;101524.91;4926252;28;20108;-58
2021/12/11 09:12:31;;;;;;;20.87;9.63;;;;;;;12.96;82.34;101513.38;4934142;29;20079;-58
2021/12/11 09:15:24;;;;;;;30.23;8.73;;;;;;;12.93;82.58;101527.94;4932345;29;20075;-58
2021/12/11 09:18:00;;;;;;;18.33;8.03;;;;;;;12.81;82.42;101541.31;4947672;29;20520;-58
2021/12/11 09:20:42;;;;;;;25.37;9.93;;;;;;;12.64;82.65;101540.66;4932608;29;20425;-58
2021/12/11 09:23:16;;;;;;;24.23;9.47;;;;;;;12.54;82.75;101547.03;4925176;29;20087;-58
2021/12/11 09:25:55;;;;;;;30.33;12.27;;;;;;;12.51;83.07;101542.81;4934034;29;20051;-59
2021/12/11 09:28:52;;;;;;;35.70;11.47;;;;;;;12.66;83.36;101553.28;4945086;29;20071;-69
2021/12/11 09:31:35;;;;;;;36.70;13.43;;;;;;;12.62;83.42;101535.31;4926076;29;20054;-58
2021/12/11 09:34:17;;;;;;;36.37;13.67;;;;;;;12.70;83.39;101553.59;4931530;29;20134;-58
2021/12/11 09:36:49;;;;;;;27.73;11.77;;;;;;;12.57;83.32;101546.47;4931489;29;20126;-58
2021/12/11 09:39:27;;;;;;;42.60;13.43;;;;;;;12.63;83.38;101564.19;4932673;29;20144;-58
2021/12/11 09:41:53;;;;;;;34.87;12.40;;;;;;;12.61;83.10;101567.25;4932062;29;20135;-58
2021/12/11 09:44:29;;;;;;;30.83;10.33;;;;;;;12.36;83.52;101536.25;4932357;29;20504;-58
2021/12/11 09:47:02;;;;;;;41.70;13.17;;;;;;;12.61;83.75;101569.22;4932299;29;20079;-59
2021/12/11 09:49:35;;;;;;;29.37;10.17;;;;;;;12.72;83.81;101566.22;4932983;29;20127;-58
2021/12/11 09:52:15;;;;;;;25.90;10.57;;;;;;;12.75;84.00;101570.41;4932924;29;20452;-59
2021/12/11 09:54:48;;;;;;;22.33;11.03;;;;;;;12.75;83.76;101579.69;4929640;29;20134;-58
2021/12/11 09:57:19;;;;;;;30.83;11.00;;;;;;;12.72;83.88;101555.00;4932648;29;20593;-78
2021/12/11 09:59:49;;;;;;;29.47;11.43;;;;;;;12.90;84.14;101567.72;4932939;29;20634;-74
2021/12/11 10:02:21;;;;;;;33.70;11.68;;;;;;;13.02;84.22;101573.97;4934329;29;20503;-71
2021/12/11 10:05:04;;;;;;;35.10;13.70;;;;;;;13.11;84.35;101579.06;4924915;29;20052;-60
2021/12/11 10:07:37;;;;;;;46.17;18.10;;;;;;;13.24;84.27;101572.97;4919300;29;20048;-60
2021/12/11 10:10:21;;;;;;;37.57;16.53;;;;;;;13.50;84.79;101577.59;4924143;29;20583;-60
2021/12/11 10:12:52;;;;;;;43.70;16.80;;;;;;;13.72;84.44;101580.16;4926945;29;20079;-61
2021/12/11 10:15:18;;;;;;;35.67;12.03;;;;;;;13.74;84.50;101591.97;4922566;29;20510;-59
2021/12/11 10:17:54;;;;;;;23.60;11.02;;;;;;;13.74;84.72;101591.97;4925650;29;20706;-59
2021/12/11 10:20:29;;;;;;;32.72;10.70;;;;;;;13.75;84.56;101585.22;4925505;29;20917;-59
2021/12/11 10:22:59;;;;;;;23.92;10.43;;;;;;;13.91;84.73;101585.25;4923572;29;20122;-59
2021/12/11 10:25:30;;;;;;;27.65;10.77;;;;;;;14.06;84.54;101590.06;4928332;29;20558;-60
2021/12/11 10:28:04;;;;;;;21.50;10.70;;;;;;;14.05;84.54;101582.75;4923832;29;20491;-58
2021/12/11 10:30:35;;;;;;;25.05;9.60;;;;;;;14.20;84.60;101585.59;4920278;29;20138;-60
2021/12/11 10:33:05;;;;;;;28.02;9.80;;;;;;;14.30;84.57;101577.16;4922838;29;20055;-60
2021/12/11 10:35:37;;;;;;;31.42;9.50;;;;;;;14.38;84.62;101576.59;4922876;29;20138;-59
2021/12/11 10:38:06;;;;;;;50.45;26.92;;;;;;;14.44;84.68;101588.69;4932319;29;20079;-59
2021/12/11 10:40:40;;;;;;;50.55;29.42;;;;;;;14.54;84.59;101574.66;4915790;29;20083;-59
2021/12/11 10:43:12;;;;;;;39.08;25.35;;;;;;;14.64;84.61;101569.03;4931254;29;20142;-60
2021/12/11 10:45:41;;;;;;;35.80;17.02;;;;;;;14.69;84.72;101565.34;4936990;29;20205;-59
2021/12/11 10:48:11;;;;;;;34.42;15.52;;;;;;;14.73;84.82;101571.25;4933444;29;20048;-59
2021/12/11 10:50:43;;;;;;;29.33;9.38;;;;;;;14.76;84.94;101570.69;4932015;29;20048;-59
2021/12/11 10:53:14;;;;;;;23.13;8.50;;;;;;;14.80;84.80;101564.22;4933186;29;20072;-59
2021/12/11 10:55:42;;;;;;;18.80;7.57;;;;;;;14.83;84.90;101560.81;4926070;29;20258;-59
2021/12/11 10:58:21;;;;;;;21.45;7.15;;;;;;;15.01;84.99;101555.69;4934902;29;20052;-59
2021/12/11 11:00:56;;;;;;;12.05;7.78;;;;;;;15.10;84.51;101570.88;4934421;29;20139;-59
2021/12/11 11:03:25;;;;;;;25.88;7.50;;;;;;;15.22;84.48;101567.75;4935531;29;20060;-59
2021/12/11 11:05:53;;;;;;;14.63;7.63;;;;;;;15.21;84.40;101547.19;4932283;29;20099;-59
2021/12/11 11:08:20;;;;;;;13.70;6.78;;;;;;;15.20;84.39;101530.59;4933706;29;20086;-59
2021/12/11 11:10:54;;;;;;;15.32;7.40;;;;;;;15.52;84.35;101558.31;4932865;29;20484;-59
2021/12/11 11:13:22;;;;;;;14.77;5.88;;;;;;;15.64;84.42;101562.47;4932257;29;20074;-59
2021/12/11 11:15:52;;;;;;;14.88;6.32;;;;;;;15.68;83.94;101551.50;4921078;29;20055;-59
2021/12/11 11:18:21;;;;;;;18.17;5.13;;;;;;;15.79;83.88;101555.94;4930300;29;20135;-59
2021/12/11 11:20:59;;;;;;;19.55;7.78;;;;;;;15.86;83.82;101548.03;4934105;29;20142;-59
2021/12/11 11:23:26;;;;;;;16.02;7.00;;;;;;;15.97;83.20;101550.78;4934550;29;20141;-59
2021/12/11 11:25:56;;;;;;;14.90;6.72;;;;;;;15.97;83.35;101548.78;4937278;29;20131;-59
2021/12/11 11:28:26;;;;;;;14.05;6.25;;;;;;;16.05;83.28;101541.69;4934509;29;20160;-60
2021/12/11 11:30:59;;;;;;;15.35;6.10;;;;;;;16.15;83.15;101535.97;4936473;29;20134;-60
2021/12/11 11:33:27;;;;;;;12.88;7.68;;;;;;;16.26;83.14;101525.44;4934438;29;20142;-60
2021/12/11 11:35:57;;;;;;;17.20;7.22;;;;;;;16.40;82.92;101534.06;4926310;29;20491;-60
2021/12/11 11:38:28;;;;;;;10.68;5.82;;;;;;;16.38;82.84;101528.72;4936971;29;20433;-60
2021/12/11 11:41:02;;;;;;;9.65;5.57;;;;;;;16.58;82.94;101534.16;4936364;29;20470;-60
2021/12/11 11:43:29;;;;;;;4.65;2.70;;;;;;;16.80;82.49;101525.22;4935506;29;20251;-60
2021/12/11 11:45:56;;;;;;;5.80;3.28;;;;;;;16.84;82.67;101519.81;4936622;29;20126;-60
2021/12/11 11:48:27;;;;;;;10.82;4.78;;;;;;;16.93;82.89;101518.03;4932176;29;20054;-60
2021/12/11 11:51:12;;;;;;;7.18;5.55;;;;;;;16.99;82.45;101518.78;4934198;29;20051;-60
2021/12/11 11:53:39;;;;;;;9.68;5.10;;;;;;;17.03;82.55;101519.91;4946910;29;20047;-60